KIAD/IAD METAR and TAF weather

Enter ICAO airport designator
Station Type Date Time Source
KIAD METAR 2020/02/24 21:52 UTC NOAA

KIAD 242152Z 20004KT 10SM OVC100 13/M02 A2993 RMK AO2 SLP137 T01281017


Station Type Date Time Source
KIAD Decoded METAR 2020/02/24 21:52 UTC NOAA

DULLES INTERNATIONAL AIRPORT, VA, United States (KIAD) 38-56N 077-27W 93M
Feb 24, 2020 - 04:52 PM EST / 2020.02.24 2152 UTC
Wind: from the SSW (200 degrees) at 5 MPH (4 KT):0
Visibility: 10 mile(s):0
Sky conditions: overcast
Temperature: 55.0 F (12.8 C)
Dew Point: 28.9 F (-1.7 C)
Relative Humidity: 36%
Pressure (altimeter): 29.93 in. Hg (1013 hPa)
ob: KIAD 242152Z 20004KT 10SM OVC100 13/M02 A2993 RMK AO2 SLP137 T01281017
cycle: 22

Station Type Date Time Source
KIAD TAF 2020/02/24 21:58 UTC NOAA

TAF
AMD KIAD 242058Z 2421/2524 16006KT P6SM BKN100 OVC200
FM250700 15004KT 3SM -RA BR BKN008 OVC015
FM251000 11005KT 1SM -RADZ BR BKN003 OVC008
FM251500 05005KT 2SM -DZ BR BKN005 OVC015
FM251900 05005KT 5SM -DZ BR BKN008 OVC015

Example: see airport list